createdAt,value
2023-01-30T00:01:58.632Z,101109.91
2023-01-30T00:04:26.595Z,101104.38
2023-01-30T00:06:55.899Z,101088.03
2023-01-30T00:09:23.807Z,101082.28
2023-01-30T00:11:51.725Z,101058.75
2023-01-30T00:14:19.909Z,101064.63
2023-01-30T00:16:47.930Z,101047.44
2023-01-30T00:19:15.863Z,101055.16
2023-01-30T00:21:43.775Z,101036.44
2023-01-30T00:24:13.344Z,101040.31
2023-01-30T00:26:41.338Z,101039.59
2023-01-30T00:29:10.638Z,101026.22
2023-01-30T00:31:38.534Z,101017.19
2023-01-30T00:34:06.468Z,100999.22
2023-01-30T00:36:34.380Z,100989.81
2023-01-30T00:39:02.240Z,100969.50
2023-01-30T00:41:51.552Z,100969.03
2023-01-30T00:44:36.976Z,100954.69
2023-01-30T00:47:08.970Z,100950.97
2023-01-30T00:49:37.524Z,100927.22
2023-01-30T00:52:06.231Z,100915.47
2023-01-30T00:54:34.257Z,100920.91
2023-01-30T00:57:03.499Z,100900.84
2023-01-30T00:59:32.475Z,100896.94
2023-01-30T01:02:00.560Z,100901.53
2023-01-30T01:04:28.723Z,100895.22
2023-01-30T01:06:56.741Z,100896.25
2023-01-30T01:09:24.721Z,100898.59
2023-01-30T01:11:53.830Z,100887.88
2023-01-30T01:14:23.056Z,100892.19
2023-01-30T01:16:51.109Z,100880.56
2023-01-30T01:19:19.078Z,100848.88
2023-01-30T01:21:47.304Z,100825.59
2023-01-30T01:24:16.888Z,100827.31
2023-01-30T01:26:45.859Z,100830.44
2023-01-30T01:29:15.155Z,100819.84
2023-01-30T01:31:45.691Z,100827.31
2023-01-30T01:34:13.723Z,100830.13
2023-01-30T01:36:54.373Z,100819.28
2023-01-30T01:39:23.484Z,100823.44
2023-01-30T01:41:51.077Z,100837.91
2023-01-30T01:44:19.217Z,100839.84
2023-01-30T01:46:52.272Z,100849.72
2023-01-30T01:49:23.640Z,100841.47
2023-01-30T01:51:56.464Z,100841.63
2023-01-30T01:54:30.686Z,100834.31
2023-01-30T01:57:04.339Z,100823.13
2023-01-30T01:59:35.946Z,100810.94
2023-01-30T02:02:10.332Z,100803.94
2023-01-30T02:04:59.241Z,100786.38
2023-01-30T02:07:28.701Z,100766.81
2023-01-30T02:09:56.828Z,100755.69
2023-01-30T02:12:25.823Z,100758.13
2023-01-30T02:14:55.809Z,100757.31
2023-01-30T02:17:25.886Z,100749.25
2023-01-30T02:19:58.967Z,100738.13
2023-01-30T02:23:03.271Z,100728.00
2023-01-30T02:26:00.800Z,100709.47
2023-01-30T02:28:49.673Z,100708.47
2023-01-30T02:31:36.941Z,100702.34
2023-01-30T02:34:16.803Z,100694.66
2023-01-30T02:36:56.194Z,100702.31
2023-01-30T02:39:38.638Z,100702.38
2023-01-30T02:42:15.746Z,100700.38
2023-01-30T02:44:51.910Z,100692.06
2023-01-30T02:47:30.551Z,100674.06
2023-01-30T02:50:03.419Z,100682.06
2023-01-30T02:52:34.009Z,100675.09
2023-01-30T02:55:03.026Z,100670.34
2023-01-30T02:57:30.893Z,100658.53
2023-01-30T03:00:06.003Z,100655.59
2023-01-30T03:02:52.452Z,100650.31
2023-01-30T03:05:37.955Z,100632.31
2023-01-30T03:08:18.258Z,100633.69
2023-01-30T03:10:55.870Z,100629.94
2023-01-30T03:13:35.437Z,100614.91
2023-01-30T03:16:11.366Z,100617.25
2023-01-30T03:18:43.120Z,100613.25
2023-01-30T03:21:12.784Z,100608.47
2023-01-30T03:23:40.725Z,100599.75
2023-01-30T03:26:15.427Z,100601.63
2023-01-30T03:28:47.486Z,100607.09
2023-01-30T03:31:15.962Z,100596.69
2023-01-30T03:33:46.058Z,100587.53
2023-01-30T03:36:14.467Z,100588.06
2023-01-30T03:38:42.841Z,100585.97
2023-01-30T03:41:11.778Z,100588.00
2023-01-30T03:43:40.555Z,100583.53
2023-01-30T03:46:08.513Z,100578.75
2023-01-30T03:48:36.488Z,100564.59
2023-01-30T03:51:06.319Z,100572.97
2023-01-30T03:53:34.680Z,100570.94
2023-01-30T03:56:02.669Z,100552.56
2023-01-30T03:58:33.392Z,100550.16
2023-01-30T04:01:13.819Z,100536.56
2023-01-30T04:03:43.228Z,100543.91
2023-01-30T04:06:12.559Z,100525.97
2023-01-30T04:08:40.809Z,100518.56
2023-01-30T04:11:10.821Z,100526.66
2023-01-30T04:13:40.493Z,100517.00
2023-01-30T04:16:17.491Z,100500.81
2023-01-30T04:19:04.291Z,100496.66
2023-01-30T04:21:35.715Z,100509.63
2023-01-30T04:24:04.053Z,100497.44
2023-01-30T04:26:31.969Z,100489.13
2023-01-30T04:28:59.916Z,100491.47
2023-01-30T04:31:29.887Z,100496.25
2023-01-30T04:34:14.051Z,100496.44
2023-01-30T04:36:43.401Z,100478.66
2023-01-30T04:39:13.068Z,100470.41
2023-01-30T04:41:41.934Z,100479.94
2023-01-30T04:44:11.938Z,100468.88
2023-01-30T04:46:39.822Z,100483.81
2023-01-30T04:49:07.877Z,100462.59
2023-01-30T04:51:35.873Z,100454.41
2023-01-30T04:54:06.627Z,100452.41
2023-01-30T04:56:34.860Z,100461.28
2023-01-30T04:59:03.229Z,100447.53
2023-01-30T05:01:39.047Z,100458.56
2023-01-30T05:04:09.095Z,100445.78
2023-01-30T05:06:37.700Z,100453.84
2023-01-30T05:09:07.360Z,100447.50
2023-01-30T05:11:35.633Z,100442.06
2023-01-30T05:14:03.842Z,100435.88
2023-01-30T05:16:32.343Z,100438.28
2023-01-30T05:19:00.330Z,100432.72
2023-01-30T05:21:37.504Z,100440.78
2023-01-30T05:24:07.965Z,100436.44
2023-01-30T05:26:35.917Z,100428.28
2023-01-30T05:29:03.817Z,100420.91
2023-01-30T05:31:31.694Z,100417.69
2023-01-30T05:33:59.595Z,100410.91
2023-01-30T05:36:27.499Z,100403.84
2023-01-30T05:38:55.519Z,100396.91
2023-01-30T05:41:24.733Z,100394.88
2023-01-30T05:43:52.787Z,100393.16
2023-01-30T05:46:21.090Z,100384.59
2023-01-30T05:48:49.283Z,100380.50
2023-01-30T05:51:19.661Z,100381.78
2023-01-30T05:53:48.071Z,100377.31
2023-01-30T05:56:16.470Z,100365.19
2023-01-30T05:58:51.809Z,100364.78
2023-01-30T06:01:19.950Z,100360.34
2023-01-30T06:03:47.920Z,100351.56
2023-01-30T06:06:15.950Z,100351.84
2023-01-30T06:08:44.161Z,100353.09
2023-01-30T06:11:14.941Z,100359.31
2023-01-30T06:13:43.104Z,100365.72
2023-01-30T06:16:14.630Z,100366.09
2023-01-30T06:18:43.072Z,100353.09
2023-01-30T06:21:11.323Z,100344.19
2023-01-30T06:23:39.721Z,100362.25
2023-01-30T06:26:09.196Z,100350.09
2023-01-30T06:28:38.181Z,100349.16
2023-01-30T06:31:07.884Z,100363.34
2023-01-30T06:33:37.389Z,100357.09
2023-01-30T06:36:05.857Z,100358.25
2023-01-30T06:38:33.764Z,100361.47
2023-01-30T06:41:01.700Z,100364.88
2023-01-30T06:43:29.615Z,100359.84
2023-01-30T06:45:59.849Z,100360.78
2023-01-30T06:48:27.959Z,100356.75
2023-01-30T06:50:57.521Z,100351.31
2023-01-30T06:53:30.378Z,100357.00
2023-01-30T06:55:59.120Z,100338.63
2023-01-30T06:58:27.497Z,100337.59
2023-01-30T07:00:55.445Z,100330.09
2023-01-30T07:03:23.612Z,100329.25
2023-01-30T07:05:51.525Z,100324.19
2023-01-30T07:08:22.579Z,100333.69
2023-01-30T07:10:51.893Z,100329.41
2023-01-30T07:13:19.779Z,100325.78
2023-01-30T07:15:47.796Z,100323.47
2023-01-30T07:18:15.651Z,100320.75
2023-01-30T07:20:47.214Z,100308.38
2023-01-30T07:23:15.205Z,100315.19
2023-01-30T07:25:44.618Z,100318.59
2023-01-30T07:28:12.496Z,100312.56
2023-01-30T07:30:40.482Z,100301.56
2023-01-30T07:33:08.576Z,100310.63
2023-01-30T07:35:37.955Z,100304.00
2023-01-30T07:38:06.314Z,100291.84
2023-01-30T07:40:34.430Z,100300.50
2023-01-30T07:43:06.080Z,100308.78
2023-01-30T07:45:38.233Z,100312.69
2023-01-30T07:48:16.888Z,100311.06
2023-01-30T07:50:45.354Z,100318.88
2023-01-30T07:53:15.543Z,100315.72
2023-01-30T07:55:44.005Z,100322.81
2023-01-30T07:58:15.299Z,100311.25
2023-01-30T08:00:43.197Z,100328.34
2023-01-30T08:03:14.006Z,100325.47
2023-01-30T08:05:41.999Z,100339.13
2023-01-30T08:08:10.116Z,100325.81
2023-01-30T08:10:38.061Z,100321.91
2023-01-30T08:13:06.067Z,100331.47
2023-01-30T08:15:35.340Z,100324.38
2023-01-30T08:18:03.232Z,100323.19
2023-01-30T08:20:31.171Z,100318.47
2023-01-30T08:23:00.122Z,100326.28
2023-01-30T08:25:28.345Z,100318.19
2023-01-30T08:27:56.700Z,100312.91
2023-01-30T08:30:24.836Z,100311.38
2023-01-30T08:32:54.122Z,100293.97
2023-01-30T08:35:22.170Z,100302.97
2023-01-30T08:37:50.071Z,100311.63
2023-01-30T08:40:18.443Z,100309.16
2023-01-30T08:42:46.914Z,100313.72
2023-01-30T08:45:15.432Z,100306.84
2023-01-30T08:47:43.548Z,100317.00
2023-01-30T08:50:13.169Z,100306.09
2023-01-30T08:52:41.101Z,100318.00
2023-01-30T08:55:10.430Z,100308.00
2023-01-30T08:57:38.480Z,100304.91
2023-01-30T09:00:07.589Z,100302.69
2023-01-30T09:02:35.586Z,100309.03
2023-01-30T09:05:03.507Z,100296.66
2023-01-30T09:07:32.867Z,100300.03
2023-01-30T09:10:00.920Z,100301.06
2023-01-30T09:12:28.821Z,100303.19
2023-01-30T09:14:58.606Z,100306.53
2023-01-30T09:17:26.642Z,100303.91
2023-01-30T09:19:54.676Z,100315.41
2023-01-30T09:22:22.605Z,100320.91
2023-01-30T09:24:51.961Z,100306.13
2023-01-30T09:27:19.915Z,100314.13
2023-01-30T09:29:47.816Z,100318.31
2023-01-30T09:32:15.700Z,100319.53
2023-01-30T09:34:43.671Z,100323.66
2023-01-30T09:37:11.594Z,100310.22
2023-01-30T09:39:39.486Z,100313.66
2023-01-30T09:42:34.493Z,100317.63
2023-01-30T09:45:33.835Z,100314.00
2023-01-30T09:48:18.243Z,100312.84
2023-01-30T09:51:03.167Z,100307.78
2023-01-30T09:53:38.060Z,100300.44
2023-01-30T09:56:06.896Z,100302.97
2023-01-30T09:58:50.113Z,100292.50
2023-01-30T10:01:27.446Z,100306.34
2023-01-30T10:04:12.191Z,100308.06
2023-01-30T10:06:52.625Z,100302.63
2023-01-30T10:09:33.017Z,100316.69
2023-01-30T10:12:16.250Z,100304.81
2023-01-30T10:15:04.823Z,100293.47
2023-01-30T10:17:53.838Z,100290.69
2023-01-30T10:20:33.063Z,100296.13
2023-01-30T10:23:15.230Z,100291.13
2023-01-30T10:25:47.452Z,100301.53
2023-01-30T10:28:23.720Z,100311.78
2023-01-30T10:30:54.455Z,100295.13
2023-01-30T10:33:25.896Z,100286.94
2023-01-30T10:36:04.677Z,100299.03
2023-01-30T10:38:40.964Z,100289.16
2023-01-30T10:41:20.142Z,100275.03
2023-01-30T10:43:55.812Z,100285.63
2023-01-30T10:46:40.864Z,100276.34
2023-01-30T10:49:16.980Z,100276.31
2023-01-30T10:51:54.892Z,100279.59
2023-01-30T10:54:27.890Z,100288.56
2023-01-30T10:57:03.199Z,100281.84
2023-01-30T10:59:43.234Z,100278.53
2023-01-30T11:02:24.416Z,100257.91
2023-01-30T11:04:59.341Z,100252.72
2023-01-30T11:07:29.440Z,100252.50
2023-01-30T11:09:59.316Z,100253.66
2023-01-30T11:12:27.390Z,100245.16
2023-01-30T11:14:58.675Z,100242.53
2023-01-30T11:17:34.743Z,100240.31
2023-01-30T11:20:16.510Z,100239.56
2023-01-30T11:22:49.926Z,100229.44
2023-01-30T11:25:20.986Z,100215.78
2023-01-30T11:27:55.026Z,100209.34
2023-01-30T11:30:27.769Z,100200.84
2023-01-30T11:33:12.906Z,100190.19
2023-01-30T11:35:52.426Z,100195.88
2023-01-30T11:38:23.995Z,100183.88
2023-01-30T11:41:02.222Z,100200.75
2023-01-30T11:43:30.681Z,100198.69
2023-01-30T11:45:59.661Z,100193.06
2023-01-30T11:48:33.485Z,100201.56
2023-01-30T11:51:19.466Z,100189.22
2023-01-30T11:53:49.984Z,100171.44
2023-01-30T11:56:23.966Z,100173.47
2023-01-30T11:58:59.047Z,100178.56
2023-01-30T12:01:29.515Z,100180.75
2023-01-30T12:04:00.251Z,100198.66
2023-01-30T12:06:32.237Z,100201.03
2023-01-30T12:09:00.802Z,100219.16
2023-01-30T12:11:44.848Z,100204.31
2023-01-30T12:14:38.845Z,100192.09
2023-01-30T12:17:15.821Z,100200.19
2023-01-30T12:20:01.307Z,100196.72
2023-01-30T12:22:38.877Z,100183.78
2023-01-30T12:25:15.679Z,100163.28
2023-01-30T12:30:31.430Z,100157.59
2023-01-30T12:36:03.213Z,100121.03
2023-01-30T12:38:54.503Z,100112.66
2023-01-30T12:41:34.851Z,100113.41
2023-01-30T12:44:30.456Z,100138.81
2023-01-30T12:47:13.004Z,100137.59
2023-01-30T12:49:57.284Z,100137.13
2023-01-30T12:52:42.823Z,100126.03
2023-01-30T12:55:27.873Z,100123.41
2023-01-30T12:58:01.715Z,100119.88
2023-01-30T13:00:42.239Z,100119.09
2023-01-30T13:03:23.787Z,100119.44
2023-01-30T13:05:57.996Z,100116.53
2023-01-30T13:08:51.208Z,100114.09
2023-01-30T13:11:38.286Z,100116.28
2023-01-30T13:14:14.156Z,100106.38
2023-01-30T13:16:55.993Z,100095.72
2023-01-30T13:19:40.317Z,100131.41
2023-01-30T13:22:15.324Z,100117.63
2023-01-30T13:24:54.337Z,100102.03
2023-01-30T13:27:24.482Z,100097.56
2023-01-30T13:29:53.859Z,100094.25
2023-01-30T13:32:35.741Z,100091.13
2023-01-30T13:35:07.440Z,100077.41
2023-01-30T13:37:35.677Z,100069.38
2023-01-30T13:40:17.516Z,100082.13
2023-01-30T13:42:49.869Z,100086.41
2023-01-30T13:45:22.159Z,100103.47
2023-01-30T13:48:03.944Z,100109.28
2023-01-30T13:50:50.107Z,100118.47
2023-01-30T13:53:24.305Z,100128.22
2023-01-30T13:55:59.384Z,100130.50
2023-01-30T13:58:43.831Z,100138.53
2023-01-30T14:01:12.537Z,100139.75
2023-01-30T14:03:41.243Z,100155.50
2023-01-30T14:06:15.347Z,100167.97
2023-01-30T14:08:53.468Z,100168.66
2023-01-30T14:11:34.437Z,100178.69
2023-01-30T14:14:06.346Z,100181.22
2023-01-30T14:16:45.901Z,100167.13
2023-01-30T14:19:39.110Z,100176.75
2023-01-30T14:22:21.350Z,100177.59
2023-01-30T14:25:22.656Z,100191.19
2023-01-30T14:27:53.093Z,100195.25
2023-01-30T14:30:38.610Z,100219.16
2023-01-30T14:33:35.389Z,100209.75
2023-01-30T14:36:35.723Z,100239.56
2023-01-30T14:39:49.405Z,100244.75
2023-01-30T14:42:25.523Z,100259.41
2023-01-30T14:45:06.699Z,100260.53
2023-01-30T14:47:43.110Z,100270.59
2023-01-30T14:50:20.782Z,100252.69
2023-01-30T14:52:50.591Z,100268.25
2023-01-30T14:55:22.235Z,100274.81
2023-01-30T14:57:56.771Z,100270.81
2023-01-30T15:00:32.159Z,100271.66
2023-01-30T15:03:03.050Z,100275.16
2023-01-30T15:05:35.073Z,100278.66
2023-01-30T15:08:10.974Z,100281.41
2023-01-30T15:10:55.450Z,100279.81
2023-01-30T15:13:42.605Z,100278.47
2023-01-30T15:16:30.568Z,100273.81
2023-01-30T15:19:12.234Z,100275.06
2023-01-30T15:21:56.398Z,100270.34
2023-01-30T15:25:14.784Z,100277.81
2023-01-30T15:27:57.572Z,100267.38
2023-01-30T15:30:39.933Z,100278.56
2023-01-30T15:33:29.176Z,100279.63
2023-01-30T15:35:58.785Z,100287.13
2023-01-30T15:38:29.859Z,100302.78
2023-01-30T15:41:00.849Z,100284.72
2023-01-30T15:43:54.873Z,100301.94
2023-01-30T15:46:35.007Z,100308.66
2023-01-30T15:49:20.727Z,100321.56
2023-01-30T15:51:48.961Z,100312.66
2023-01-30T15:54:19.822Z,100326.16
2023-01-30T15:56:49.926Z,100320.63
2023-01-30T15:59:31.698Z,100309.50
2023-01-30T16:02:02.198Z,100307.69
2023-01-30T16:04:32.078Z,100307.78
2023-01-30T16:07:00.987Z,100321.56
2023-01-30T16:09:28.964Z,100317.25
2023-01-30T16:11:57.066Z,100320.25
2023-01-30T16:14:25.125Z,100323.75
2023-01-30T16:16:56.167Z,100320.72
2023-01-30T16:19:28.696Z,100338.19
2023-01-30T16:22:01.890Z,100344.16
2023-01-30T16:24:32.708Z,100359.03
2023-01-30T16:27:03.515Z,100364.97
2023-01-30T16:29:33.652Z,100373.25
2023-01-30T16:32:02.115Z,100380.94
2023-01-30T16:34:33.455Z,100374.75
2023-01-30T16:37:07.792Z,100371.78
2023-01-30T16:39:37.423Z,100372.66
2023-01-30T16:42:23.506Z,100382.63
2023-01-30T16:44:51.491Z,100401.56
2023-01-30T16:47:26.065Z,100396.00
2023-01-30T16:49:55.830Z,100399.91
2023-01-30T16:52:37.074Z,100403.13
2023-01-30T16:55:09.507Z,100420.88
2023-01-30T16:57:41.780Z,100411.09
2023-01-30T17:00:22.539Z,100412.72
2023-01-30T17:02:54.369Z,100431.53
2023-01-30T17:05:25.185Z,100433.59
2023-01-30T17:07:56.738Z,100446.41
2023-01-30T17:10:55.944Z,100444.56
2023-01-30T17:13:36.637Z,100445.69
2023-01-30T17:16:34.859Z,100441.47
2023-01-30T17:19:03.330Z,100460.13
2023-01-30T17:21:32.704Z,100462.44
2023-01-30T17:24:03.974Z,100454.38
2023-01-30T17:26:32.757Z,100475.31
2023-01-30T17:29:00.749Z,100464.56
2023-01-30T17:31:28.677Z,100476.78
2023-01-30T17:33:56.642Z,100479.59
2023-01-30T17:36:27.830Z,100493.75
2023-01-30T17:38:56.205Z,100496.69
2023-01-30T17:41:28.513Z,100505.69
2023-01-30T17:43:56.517Z,100498.97
2023-01-30T17:46:28.333Z,100512.13
2023-01-30T17:48:56.515Z,100516.41
2023-01-30T17:51:24.435Z,100510.91
2023-01-30T17:53:52.382Z,100516.09
2023-01-30T17:56:24.175Z,100514.09
2023-01-30T17:58:53.461Z,100521.25
2023-01-30T18:01:21.519Z,100530.72
2023-01-30T18:03:49.639Z,100543.81
2023-01-30T18:06:17.655Z,100543.22
2023-01-30T18:08:45.554Z,100540.94
2023-01-30T18:11:14.892Z,100542.63
2023-01-30T18:13:43.857Z,100561.16
2023-01-30T18:16:18.446Z,100552.31
2023-01-30T18:18:46.496Z,100559.59
2023-01-30T18:21:17.524Z,100578.91
2023-01-30T18:23:45.432Z,100587.50
2023-01-30T18:26:14.306Z,100589.09
2023-01-30T18:28:43.933Z,100597.50
2023-01-30T18:31:13.475Z,100584.97
2023-01-30T18:33:44.562Z,100596.53
2023-01-30T18:36:14.672Z,100605.00
2023-01-30T18:38:42.747Z,100611.34
2023-01-30T18:41:11.894Z,100603.59
2023-01-30T18:43:40.226Z,100615.72
2023-01-30T18:46:09.994Z,100625.72
2023-01-30T18:48:39.743Z,100629.47
2023-01-30T18:51:09.844Z,100637.44
2023-01-30T18:53:37.846Z,100630.19
2023-01-30T18:56:08.635Z,100655.19
2023-01-30T18:58:37.556Z,100639.75
2023-01-30T19:01:11.210Z,100645.63
2023-01-30T19:03:40.762Z,100666.09
2023-01-30T19:06:11.616Z,100667.13
2023-01-30T19:08:39.864Z,100663.91
2023-01-30T19:11:22.525Z,100661.25
2023-01-30T19:13:50.434Z,100666.25
2023-01-30T19:16:19.102Z,100690.19
2023-01-30T19:18:49.594Z,100691.94
2023-01-30T19:21:17.757Z,100708.66
2023-01-30T19:23:45.673Z,100694.41
2023-01-30T19:26:13.654Z,100709.06
2023-01-30T19:28:44.606Z,100710.50
2023-01-30T19:31:15.311Z,100711.25
2023-01-30T19:33:44.012Z,100726.22
2023-01-30T19:36:15.865Z,100732.28
2023-01-30T19:38:44.826Z,100743.03
2023-01-30T19:41:13.835Z,100744.81
2023-01-30T19:43:42.468Z,100723.94
2023-01-30T19:46:11.909Z,100737.47
2023-01-30T19:48:40.474Z,100735.88
2023-01-30T19:51:14.974Z,100736.94
2023-01-30T19:53:44.302Z,100746.06
2023-01-30T19:56:13.393Z,100743.78
2023-01-30T19:58:41.732Z,100752.66
2023-01-30T20:01:11.755Z,100753.81
2023-01-30T20:03:41.048Z,100752.28
2023-01-30T20:06:12.873Z,100758.47
2023-01-30T20:08:43.071Z,100762.91
2023-01-30T20:11:12.056Z,100779.06
2023-01-30T20:13:41.658Z,100777.75
2023-01-30T20:16:12.552Z,100784.50
2023-01-30T20:18:41.954Z,100789.34
2023-01-30T20:21:11.361Z,100798.25
2023-01-30T20:23:41.236Z,100811.00
2023-01-30T20:26:12.700Z,100817.63
2023-01-30T20:28:41.195Z,100811.56
2023-01-30T20:31:11.709Z,100813.63
2023-01-30T20:33:40.336Z,100816.13
2023-01-30T20:36:10.323Z,100809.84
2023-01-30T20:38:39.839Z,100805.13
2023-01-30T20:41:10.140Z,100820.09
2023-01-30T20:43:41.380Z,100830.72
2023-01-30T20:46:10.820Z,100823.91
2023-01-30T20:48:40.509Z,100843.19
2023-01-30T20:51:10.260Z,100838.81
2023-01-30T20:53:39.614Z,100856.84
2023-01-30T20:56:10.591Z,100864.16
2023-01-30T20:58:40.694Z,100867.22
2023-01-30T21:01:09.790Z,100878.91
2023-01-30T21:03:38.311Z,100873.75
2023-01-30T21:06:06.793Z,100878.41
2023-01-30T21:08:35.463Z,100885.22
2023-01-30T21:11:08.977Z,100887.78
2023-01-30T21:13:38.289Z,100884.09
2023-01-30T21:16:11.582Z,100899.69
2023-01-30T21:18:40.364Z,100911.47
2023-01-30T21:21:09.619Z,100907.88
2023-01-30T21:23:37.938Z,100913.63
2023-01-30T21:26:07.957Z,100920.50
2023-01-30T21:28:36.939Z,100918.66
2023-01-30T21:31:08.457Z,100925.53
2023-01-30T21:33:36.699Z,100941.25
2023-01-30T21:36:05.700Z,100932.16
2023-01-30T21:38:50.961Z,100937.06
2023-01-30T21:41:39.007Z,100945.63
2023-01-30T21:44:07.649Z,100945.47
2023-01-30T21:46:40.392Z,100949.56
2023-01-30T21:49:08.530Z,100966.94
2023-01-30T21:51:37.715Z,100960.56
2023-01-30T21:54:05.853Z,100964.13
2023-01-30T21:56:34.283Z,100975.34
2023-01-30T21:59:04.174Z,100980.06
2023-01-30T22:01:33.104Z,100993.09
2023-01-30T22:04:03.432Z,100996.34
2023-01-30T22:06:31.314Z,100987.97
2023-01-30T22:09:01.326Z,101001.41
2023-01-30T22:11:30.147Z,100999.78
2023-01-30T22:13:58.802Z,100989.94
2023-01-30T22:16:29.638Z,101007.94
2023-01-30T22:18:59.278Z,101003.78
2023-01-30T22:21:31.607Z,101009.59
2023-01-30T22:23:59.767Z,101003.06
2023-01-30T22:26:27.989Z,101007.78
2023-01-30T22:28:56.687Z,101022.53
2023-01-30T22:31:26.432Z,101033.03
2023-01-30T22:33:56.495Z,101015.63
2023-01-30T22:36:26.345Z,101022.41
2023-01-30T22:38:56.042Z,101035.28
2023-01-30T22:41:25.962Z,101052.50
2023-01-30T22:43:55.788Z,101045.97
2023-01-30T22:46:26.001Z,101046.34
2023-01-30T22:48:54.290Z,101042.97
2023-01-30T22:51:24.278Z,101050.41
2023-01-30T22:53:54.074Z,101049.31
2023-01-30T22:56:24.767Z,101045.09
2023-01-30T22:58:53.316Z,101052.94
2023-01-30T23:01:22.671Z,101050.56
2023-01-30T23:03:54.653Z,101056.22
2023-01-30T23:06:23.028Z,101042.88
2023-01-30T23:08:51.494Z,101055.28
2023-01-30T23:11:22.087Z,101057.72
2023-01-30T23:13:55.445Z,101058.34
2023-01-30T23:16:25.360Z,101064.97
2023-01-30T23:18:55.475Z,101064.47
2023-01-30T23:21:24.774Z,101070.53
2023-01-30T23:23:53.975Z,101072.59
2023-01-30T23:26:22.958Z,101078.75
2023-01-30T23:28:52.514Z,101070.72
2023-01-30T23:31:22.387Z,101086.91
2023-01-30T23:33:54.605Z,101082.09
2023-01-30T23:36:23.068Z,101081.41
2023-01-30T23:38:51.910Z,101086.78
2023-01-30T23:41:22.417Z,101083.69
2023-01-30T23:43:50.918Z,101088.69
2023-01-30T23:46:22.694Z,101088.22
2023-01-30T23:48:53.311Z,101086.50
2023-01-30T23:51:23.500Z,101082.59
2023-01-30T23:53:52.440Z,101084.31
2023-01-30T23:56:21.725Z,101075.94
2023-01-30T23:58:50.355Z,101084.47
